sensor_id;sensor_type;location;lat;lon;timestamp;pressure;altitude;pressure_sealevel;temperature;humidity
21956;BME280;11142;49.930;8.606;2022-07-18T00:00:05;100859.75;;;18.13;47.22
21956;BME280;11142;49.930;8.606;2022-07-18T00:02:35;100861.91;;;18.08;47.24
21956;BME280;11142;49.930;8.606;2022-07-18T00:05:04;100858.69;;;18.04;46.81
21956;BME280;11142;49.930;8.606;2022-07-18T00:07:32;100852.44;;;18.17;45.87
21956;BME280;11142;49.930;8.606;2022-07-18T00:10:02;100861.78;;;18.30;45.08
21956;BME280;11142;49.930;8.606;2022-07-18T00:12:30;100860.91;;;18.41;44.43
21956;BME280;11142;49.930;8.606;2022-07-18T00:14:59;100863.13;;;18.56;44.01
21956;BME280;11142;49.930;8.606;2022-07-18T00:17:28;100858.34;;;18.71;43.50
21956;BME280;11142;49.930;8.606;2022-07-18T00:19:57;100862.16;;;18.88;43.25
21956;BME280;11142;49.930;8.606;2022-07-18T00:22:26;100856.69;;;19.00;42.98
21956;BME280;11142;49.930;8.606;2022-07-18T00:24:54;100858.53;;;19.09;42.66
21956;BME280;11142;49.930;8.606;2022-07-18T00:27:23;100851.34;;;19.12;42.47
21956;BME280;11142;49.930;8.606;2022-07-18T00:29:51;100858.56;;;19.19;42.71
21956;BME280;11142;49.930;8.606;2022-07-18T00:32:20;100855.63;;;19.13;42.77
21956;BME280;11142;49.930;8.606;2022-07-18T00:34:48;100854.06;;;19.00;42.68
21956;BME280;11142;49.930;8.606;2022-07-18T00:37:17;100859.47;;;18.99;43.07
21956;BME280;11142;49.930;8.606;2022-07-18T00:39:45;100854.06;;;19.00;43.21
21956;BME280;11142;49.930;8.606;2022-07-18T00:42:13;100853.38;;;18.98;43.29
21956;BME280;11142;49.930;8.606;2022-07-18T00:44:43;100854.91;;;19.01;43.19
21956;BME280;11142;49.930;8.606;2022-07-18T00:47:11;100856.53;;;18.92;43.50
21956;BME280;11142;49.930;8.606;2022-07-18T00:49:42;100853.97;;;18.81;43.91
21956;BME280;11142;49.930;8.606;2022-07-18T00:52:10;100853.13;;;18.81;44.05
21956;BME280;11142;49.930;8.606;2022-07-18T00:54:38;100861.28;;;18.78;44.25
21956;BME280;11142;49.930;8.606;2022-07-18T00:57:06;100853.50;;;18.67;44.83
21956;BME280;11142;49.930;8.606;2022-07-18T00:59:36;100856.91;;;18.58;45.26
21956;BME280;11142;49.930;8.606;2022-07-18T01:02:22;100861.41;;;18.35;45.84
21956;BME280;11142;49.930;8.606;2022-07-18T01:04:51;100858.66;;;18.16;46.11
21956;BME280;11142;49.930;8.606;2022-07-18T01:07:20;100854.59;;;18.12;46.25
21956;BME280;11142;49.930;8.606;2022-07-18T01:09:48;100859.41;;;18.07;46.15
21956;BME280;11142;49.930;8.606;2022-07-18T01:12:16;100852.03;;;18.00;46.33
21956;BME280;11142;49.930;8.606;2022-07-18T01:14:45;100851.97;;;17.91;46.31
21956;BME280;11142;49.930;8.606;2022-07-18T01:17:15;100856.03;;;17.84;46.58
21956;BME280;11142;49.930;8.606;2022-07-18T01:19:47;100848.50;;;17.90;46.38
21956;BME280;11142;49.930;8.606;2022-07-18T01:22:19;100856.63;;;17.87;46.24
21956;BME280;11142;49.930;8.606;2022-07-18T01:24:48;100855.34;;;17.82;46.62
21956;BME280;11142;49.930;8.606;2022-07-18T01:27:18;100854.00;;;17.76;46.54
21956;BME280;11142;49.930;8.606;2022-07-18T01:29:49;100859.91;;;17.69;47.06
21956;BME280;11142;49.930;8.606;2022-07-18T01:32:19;100859.22;;;17.56;47.44
21956;BME280;11142;49.930;8.606;2022-07-18T01:34:50;100860.63;;;17.48;47.68
21956;BME280;11142;49.930;8.606;2022-07-18T01:37:19;100859.78;;;17.48;47.91
21956;BME280;11142;49.930;8.606;2022-07-18T01:39:47;100860.66;;;17.37;48.18
21956;BME280;11142;49.930;8.606;2022-07-18T01:42:15;100859.69;;;17.38;47.95
21956;BME280;11142;49.930;8.606;2022-07-18T01:44:47;100856.94;;;17.40;48.17
21956;BME280;11142;49.930;8.606;2022-07-18T01:47:16;100855.97;;;17.41;48.45
21956;BME280;11142;49.930;8.606;2022-07-18T01:49:44;100856.47;;;17.46;48.61
21956;BME280;11142;49.930;8.606;2022-07-18T01:52:12;100851.69;;;17.40;48.67
21956;BME280;11142;49.930;8.606;2022-07-18T01:54:45;100857.44;;;17.34;48.69
21956;BME280;11142;49.930;8.606;2022-07-18T01:57:13;100858.72;;;17.28;48.91
21956;BME280;11142;49.930;8.606;2022-07-18T01:59:41;100861.13;;;17.20;49.64
21956;BME280;11142;49.930;8.606;2022-07-18T02:02:09;100855.44;;;17.15;49.65
21956;BME280;11142;49.930;8.606;2022-07-18T02:04:37;100856.03;;;17.08;50.01
21956;BME280;11142;49.930;8.606;2022-07-18T02:07:23;100857.69;;;16.97;49.99
21956;BME280;11142;49.930;8.606;2022-07-18T02:09:54;100854.34;;;16.95;50.27
21956;BME280;11142;49.930;8.606;2022-07-18T02:12:24;100853.75;;;16.92;50.24
21956;BME280;11142;49.930;8.606;2022-07-18T02:14:53;100854.47;;;16.83;50.68
21956;BME280;11142;49.930;8.606;2022-07-18T02:17:21;100850.66;;;16.87;50.49
21956;BME280;11142;49.930;8.606;2022-07-18T02:19:55;100855.78;;;16.88;50.67
21956;BME280;11142;49.930;8.606;2022-07-18T02:22:23;100846.72;;;16.81;51.10
21956;BME280;11142;49.930;8.606;2022-07-18T02:24:53;100848.25;;;16.73;51.34
21956;BME280;11142;49.930;8.606;2022-07-18T02:27:21;100848.72;;;16.67;51.51
21956;BME280;11142;49.930;8.606;2022-07-18T02:29:50;100853.84;;;16.68;51.38
21956;BME280;11142;49.930;8.606;2022-07-18T02:32:18;100845.59;;;16.62;51.74
21956;BME280;11142;49.930;8.606;2022-07-18T02:34:46;100846.44;;;16.62;51.62
21956;BME280;11142;49.930;8.606;2022-07-18T02:37:14;100841.41;;;16.48;51.71
21956;BME280;11142;49.930;8.606;2022-07-18T02:39:42;100838.88;;;16.35;52.22
21956;BME280;11142;49.930;8.606;2022-07-18T02:42:12;100840.38;;;16.27;52.64
21956;BME280;11142;49.930;8.606;2022-07-18T02:44:41;100835.41;;;16.35;52.05
21956;BME280;11142;49.930;8.606;2022-07-18T02:47:09;100830.88;;;16.26;52.50
21956;BME280;11142;49.930;8.606;2022-07-18T02:49:37;100838.28;;;16.32;52.38
21956;BME280;11142;49.930;8.606;2022-07-18T02:52:07;100834.09;;;16.29;52.37
21956;BME280;11142;49.930;8.606;2022-07-18T02:54:38;100829.66;;;16.19;52.70
21956;BME280;11142;49.930;8.606;2022-07-18T02:57:07;100832.03;;;16.11;53.00
21956;BME280;11142;49.930;8.606;2022-07-18T02:59:36;100840.13;;;16.08;53.21
21956;BME280;11142;49.930;8.606;2022-07-18T03:02:04;100833.06;;;16.08;53.02
21956;BME280;11142;49.930;8.606;2022-07-18T03:04:32;100840.25;;;16.17;52.79
21956;BME280;11142;49.930;8.606;2022-07-18T03:07:00;100835.75;;;16.19;52.47
21956;BME280;11142;49.930;8.606;2022-07-18T03:09:28;100832.66;;;16.25;52.54
21956;BME280;11142;49.930;8.606;2022-07-18T03:11:57;100839.81;;;16.00;53.36
21956;BME280;11142;49.930;8.606;2022-07-18T03:14:26;100836.28;;;16.01;53.37
21956;BME280;11142;49.930;8.606;2022-07-18T03:16:56;100836.28;;;16.01;53.25
21956;BME280;11142;49.930;8.606;2022-07-18T03:19:24;100844.91;;;15.90;53.91
21956;BME280;11142;49.930;8.606;2022-07-18T03:21:53;100843.69;;;15.83;54.08
21956;BME280;11142;49.930;8.606;2022-07-18T03:24:21;100844.75;;;15.80;54.24
21956;BME280;11142;49.930;8.606;2022-07-18T03:26:50;100847.25;;;15.82;54.27
21956;BME280;11142;49.930;8.606;2022-07-18T03:29:18;100846.84;;;15.99;54.09
21956;BME280;11142;49.930;8.606;2022-07-18T03:31:46;100845.84;;;16.13;53.74
21956;BME280;11142;49.930;8.606;2022-07-18T03:34:16;100845.34;;;16.08;53.98
21956;BME280;11142;49.930;8.606;2022-07-18T03:36:44;100846.69;;;16.13;54.03
21956;BME280;11142;49.930;8.606;2022-07-18T03:39:12;100854.00;;;16.08;54.56
21956;BME280;11142;49.930;8.606;2022-07-18T03:41:43;100855.25;;;16.15;54.28
21956;BME280;11142;49.930;8.606;2022-07-18T03:44:11;100852.91;;;16.34;53.85
21956;BME280;11142;49.930;8.606;2022-07-18T03:46:39;100850.56;;;16.42;53.76
21956;BME280;11142;49.930;8.606;2022-07-18T03:49:08;100848.81;;;16.54;53.44
21956;BME280;11142;49.930;8.606;2022-07-18T03:51:37;100856.59;;;16.78;52.58
21956;BME280;11142;49.930;8.606;2022-07-18T03:54:06;100851.84;;;17.05;51.84
21956;BME280;11142;49.930;8.606;2022-07-18T03:56:35;100846.00;;;17.24;51.17
21956;BME280;11142;49.930;8.606;2022-07-18T03:59:03;100855.75;;;17.44;50.43
21956;BME280;11142;49.930;8.606;2022-07-18T04:01:31;100855.38;;;17.48;50.41
21956;BME280;11142;49.930;8.606;2022-07-18T04:04:00;100850.25;;;17.58;50.05
21956;BME280;11142;49.930;8.606;2022-07-18T04:06:28;100861.00;;;17.66;50.06
21956;BME280;11142;49.930;8.606;2022-07-18T04:08:58;100845.88;;;17.90;49.54
21956;BME280;11142;49.930;8.606;2022-07-18T04:11:26;100851.28;;;18.10;48.83
21956;BME280;11142;49.930;8.606;2022-07-18T04:13:55;100851.94;;;18.23;48.64
21956;BME280;11142;49.930;8.606;2022-07-18T04:16:23;100857.63;;;18.28;48.22
21956;BME280;11142;49.930;8.606;2022-07-18T04:18:52;100859.31;;;18.29;47.99
21956;BME280;11142;49.930;8.606;2022-07-18T04:21:20;100854.94;;;17.86;48.91
21956;BME280;11142;49.930;8.606;2022-07-18T04:23:49;100850.44;;;17.77;49.59
21956;BME280;11142;49.930;8.606;2022-07-18T04:26:20;100849.19;;;17.92;48.96
21956;BME280;11142;49.930;8.606;2022-07-18T04:28:49;100854.66;;;18.00;48.99
21956;BME280;11142;49.930;8.606;2022-07-18T04:31:18;100846.72;;;18.12;48.46
21956;BME280;11142;49.930;8.606;2022-07-18T04:33:46;100856.75;;;18.38;48.10
21956;BME280;11142;49.930;8.606;2022-07-18T04:36:14;100859.75;;;18.75;47.50
21956;BME280;11142;49.930;8.606;2022-07-18T04:38:42;100854.97;;;19.20;46.19
21956;BME280;11142;49.930;8.606;2022-07-18T04:41:10;100858.94;;;19.45;45.63
21956;BME280;11142;49.930;8.606;2022-07-18T04:43:40;100862.06;;;19.69;45.07
21956;BME280;11142;49.930;8.606;2022-07-18T04:46:08;100856.66;;;19.90;44.44
21956;BME280;11142;49.930;8.606;2022-07-18T04:48:36;100860.41;;;20.16;44.06
21956;BME280;11142;49.930;8.606;2022-07-18T04:51:05;100856.22;;;20.42;43.21
21956;BME280;11142;49.930;8.606;2022-07-18T04:53:33;100858.44;;;20.56;42.76
21956;BME280;11142;49.930;8.606;2022-07-18T04:56:01;100867.56;;;19.47;45.50
21956;BME280;11142;49.930;8.606;2022-07-18T04:58:29;100859.91;;;19.44;45.26
21956;BME280;11142;49.930;8.606;2022-07-18T05:01:00;100859.25;;;19.51;45.00
21956;BME280;11142;49.930;8.606;2022-07-18T05:03:28;100857.03;;;19.17;45.70
21956;BME280;11142;49.930;8.606;2022-07-18T05:05:57;100865.91;;;19.55;45.07
21956;BME280;11142;49.930;8.606;2022-07-18T05:08:25;100859.16;;;19.82;44.54
21956;BME280;11142;49.930;8.606;2022-07-18T05:10:53;100868.00;;;19.22;45.94
21956;BME280;11142;49.930;8.606;2022-07-18T05:13:21;100867.72;;;19.15;45.98
21956;BME280;11142;49.930;8.606;2022-07-18T05:15:49;100863.56;;;19.22;45.83
21956;BME280;11142;49.930;8.606;2022-07-18T05:18:18;100871.72;;;19.19;46.04
21956;BME280;11142;49.930;8.606;2022-07-18T05:20:46;100871.28;;;19.54;45.67
21956;BME280;11142;49.930;8.606;2022-07-18T05:23:14;100872.84;;;19.56;45.48
21956;BME280;11142;49.930;8.606;2022-07-18T05:25:43;100865.63;;;19.49;45.25
21956;BME280;11142;49.930;8.606;2022-07-18T05:28:11;100871.44;;;19.52;45.90
21956;BME280;11142;49.930;8.606;2022-07-18T05:30:39;100870.63;;;19.61;45.34
21956;BME280;11142;49.930;8.606;2022-07-18T05:33:07;100867.88;;;20.01;44.79
21956;BME280;11142;49.930;8.606;2022-07-18T05:35:37;100862.34;;;20.33;44.17
21956;BME280;11142;49.930;8.606;2022-07-18T05:38:05;100862.63;;;20.40;43.58
21956;BME280;11142;49.930;8.606;2022-07-18T05:40:34;100858.34;;;20.85;42.87
21956;BME280;11142;49.930;8.606;2022-07-18T05:43:02;100865.25;;;21.05;42.52
21956;BME280;11142;49.930;8.606;2022-07-18T05:45:31;100875.88;;;20.86;43.11
21956;BME280;11142;49.930;8.606;2022-07-18T05:48:01;100854.53;;;21.07;42.71
21956;BME280;11142;49.930;8.606;2022-07-18T05:50:31;100864.81;;;21.10;42.74
21956;BME280;11142;49.930;8.606;2022-07-18T05:53:00;100855.03;;;21.20;42.27
21956;BME280;11142;49.930;8.606;2022-07-18T05:55:28;100858.13;;;21.43;42.38
21956;BME280;11142;49.930;8.606;2022-07-18T05:57:56;100862.03;;;22.01;40.65
21956;BME280;11142;49.930;8.606;2022-07-18T06:00:25;100860.97;;;22.73;39.05
21956;BME280;11142;49.930;8.606;2022-07-18T06:02:53;100857.19;;;22.58;38.57
21956;BME280;11142;49.930;8.606;2022-07-18T06:05:21;100865.41;;;22.98;37.56
21956;BME280;11142;49.930;8.606;2022-07-18T06:07:52;100873.06;;;23.09;37.44
21956;BME280;11142;49.930;8.606;2022-07-18T06:10:22;100868.47;;;23.11;37.29
21956;BME280;11142;49.930;8.606;2022-07-18T06:12:51;100869.97;;;23.14;37.21
21956;BME280;11142;49.930;8.606;2022-07-18T06:15:19;100867.09;;;23.41;36.31
21956;BME280;11142;49.930;8.606;2022-07-18T06:17:47;100863.25;;;23.27;36.91
21956;BME280;11142;49.930;8.606;2022-07-18T06:20:17;100865.72;;;23.37;36.79
21956;BME280;11142;49.930;8.606;2022-07-18T06:22:45;100868.97;;;23.57;35.89
21956;BME280;11142;49.930;8.606;2022-07-18T06:25:14;100861.91;;;23.73;36.06
21956;BME280;11142;49.930;8.606;2022-07-18T06:27:44;100865.19;;;23.75;36.14
21956;BME280;11142;49.930;8.606;2022-07-18T06:30:12;100871.22;;;24.58;34.74
21956;BME280;11142;49.930;8.606;2022-07-18T06:32:40;100867.00;;;24.96;34.01
21956;BME280;11142;49.930;8.606;2022-07-18T06:35:09;100865.72;;;25.31;33.53
21956;BME280;11142;49.930;8.606;2022-07-18T06:37:37;100876.91;;;25.57;32.36
21956;BME280;11142;49.930;8.606;2022-07-18T06:40:06;100868.91;;;25.18;33.20
21956;BME280;11142;49.930;8.606;2022-07-18T06:42:34;100866.09;;;24.57;33.47
21956;BME280;11142;49.930;8.606;2022-07-18T06:45:06;100863.75;;;24.62;33.93
21956;BME280;11142;49.930;8.606;2022-07-18T06:47:45;100859.81;;;25.21;32.99
21956;BME280;11142;49.930;8.606;2022-07-18T06:50:14;100868.09;;;25.57;33.09
21956;BME280;11142;49.930;8.606;2022-07-18T06:52:43;100867.50;;;26.00;31.92
21956;BME280;11142;49.930;8.606;2022-07-18T06:55:13;100870.31;;;25.99;32.02
21956;BME280;11142;49.930;8.606;2022-07-18T06:57:41;100865.56;;;26.17;31.86
21956;BME280;11142;49.930;8.606;2022-07-18T07:00:14;100865.88;;;26.36;31.10
21956;BME280;11142;49.930;8.606;2022-07-18T07:02:43;100866.06;;;26.12;32.18
21956;BME280;11142;49.930;8.606;2022-07-18T07:05:12;100869.22;;;26.53;32.21
21956;BME280;11142;49.930;8.606;2022-07-18T07:07:41;100868.00;;;27.08;31.53
21956;BME280;11142;49.930;8.606;2022-07-18T07:10:14;100878.16;;;26.75;31.01
21956;BME280;11142;49.930;8.606;2022-07-18T07:12:44;100875.50;;;27.48;30.19
21956;BME280;11142;49.930;8.606;2022-07-18T07:15:17;100878.28;;;27.76;30.20
21956;BME280;11142;49.930;8.606;2022-07-18T07:17:45;100875.38;;;27.56;30.34
21956;BME280;11142;49.930;8.606;2022-07-18T07:20:14;100870.38;;;28.53;28.48
21956;BME280;11142;49.930;8.606;2022-07-18T07:22:45;100868.84;;;28.16;29.09
21956;BME280;11142;49.930;8.606;2022-07-18T07:25:15;100874.44;;;28.48;27.54
21956;BME280;11142;49.930;8.606;2022-07-18T07:27:43;100870.50;;;29.00;26.97
21956;BME280;11142;49.930;8.606;2022-07-18T07:30:14;100874.25;;;29.60;26.26
21956;BME280;11142;49.930;8.606;2022-07-18T07:32:44;100873.34;;;30.13;26.20
21956;BME280;11142;49.930;8.606;2022-07-18T07:35:16;100879.75;;;29.99;25.19
21956;BME280;11142;49.930;8.606;2022-07-18T07:37:46;100874.81;;;30.62;24.66
21956;BME280;11142;49.930;8.606;2022-07-18T07:40:16;100874.97;;;30.99;24.38
21956;BME280;11142;49.930;8.606;2022-07-18T07:42:45;100875.63;;;30.95;24.63
21956;BME280;11142;49.930;8.606;2022-07-18T07:45:14;100870.88;;;31.41;24.44
21956;BME280;11142;49.930;8.606;2022-07-18T07:47:45;100863.00;;;31.53;24.02
21956;BME280;11142;49.930;8.606;2022-07-18T07:50:14;100868.81;;;31.81;23.77
21956;BME280;11142;49.930;8.606;2022-07-18T07:52:42;100865.66;;;32.22;23.80
21956;BME280;11142;49.930;8.606;2022-07-18T07:55:10;100856.75;;;32.28;23.01
21956;BME280;11142;49.930;8.606;2022-07-18T07:57:38;100868.25;;;32.60;22.79
21956;BME280;11142;49.930;8.606;2022-07-18T08:00:07;100869.06;;;33.51;22.02
21956;BME280;11142;49.930;8.606;2022-07-18T08:02:54;100868.63;;;33.36;22.71
21956;BME280;11142;49.930;8.606;2022-07-18T08:05:26;100867.28;;;34.16;20.65
21956;BME280;11142;49.930;8.606;2022-07-18T08:07:55;100857.22;;;33.71;20.93
21956;BME280;11142;49.930;8.606;2022-07-18T08:10:23;100854.44;;;33.77;21.31
21956;BME280;11142;49.930;8.606;2022-07-18T08:12:51;100853.63;;;34.64;20.97
21956;BME280;11142;49.930;8.606;2022-07-18T08:15:19;100869.28;;;35.99;19.00
21956;BME280;11142;49.930;8.606;2022-07-18T08:17:47;100857.50;;;36.98;18.63
21956;BME280;11142;49.930;8.606;2022-07-18T08:20:16;100859.53;;;37.30;17.99
21956;BME280;11142;49.930;8.606;2022-07-18T08:22:56;100856.56;;;37.53;17.33
21956;BME280;11142;49.930;8.606;2022-07-18T08:25:25;100854.53;;;36.40;17.80
21956;BME280;11142;49.930;8.606;2022-07-18T08:27:54;100856.41;;;36.06;18.17
21956;BME280;11142;49.930;8.606;2022-07-18T08:30:22;100850.34;;;36.65;17.85
21956;BME280;11142;49.930;8.606;2022-07-18T08:32:50;100855.28;;;36.73;17.90
21956;BME280;11142;49.930;8.606;2022-07-18T08:35:21;100845.25;;;36.36;17.30
21956;BME280;11142;49.930;8.606;2022-07-18T08:37:49;100849.34;;;37.15;17.65
21956;BME280;11142;49.930;8.606;2022-07-18T08:40:17;100850.06;;;37.05;17.04
21956;BME280;11142;49.930;8.606;2022-07-18T08:42:48;100835.31;;;35.30;18.25
21956;BME280;11142;49.930;8.606;2022-07-18T08:45:37;100842.22;;;35.54;18.10
21956;BME280;11142;49.930;8.606;2022-07-18T08:48:06;100833.53;;;35.24;17.52
21956;BME280;11142;49.930;8.606;2022-07-18T08:50:36;100842.09;;;36.99;17.12
21956;BME280;11142;49.930;8.606;2022-07-18T08:53:04;100838.41;;;38.49;15.28
21956;BME280;11142;49.930;8.606;2022-07-18T08:55:32;100848.53;;;38.21;15.25
21956;BME280;11142;49.930;8.606;2022-07-18T08:58:00;100843.28;;;38.47;16.11
21956;BME280;11142;49.930;8.606;2022-07-18T09:00:49;100844.03;;;40.37;14.84
21956;BME280;11142;49.930;8.606;2022-07-18T09:03:20;100845.69;;;41.12;13.53
21956;BME280;11142;49.930;8.606;2022-07-18T09:06:02;100843.13;;;41.31;13.25
21956;BME280;11142;49.930;8.606;2022-07-18T09:08:30;100843.19;;;41.26;13.68
21956;BME280;11142;49.930;8.606;2022-07-18T09:11:00;100836.50;;;40.93;13.62
21956;BME280;11142;49.930;8.606;2022-07-18T09:13:36;100848.06;;;41.29;13.38
21956;BME280;11142;49.930;8.606;2022-07-18T09:16:06;100844.59;;;41.96;12.63
21956;BME280;11142;49.930;8.606;2022-07-18T09:18:37;100843.22;;;41.99;12.75
21956;BME280;11142;49.930;8.606;2022-07-18T09:21:09;100841.56;;;41.20;12.06
21956;BME280;11142;49.930;8.606;2022-07-18T09:23:38;100830.50;;;38.94;13.48
21956;BME280;11142;49.930;8.606;2022-07-18T09:26:07;100831.28;;;38.85;13.59
21956;BME280;11142;49.930;8.606;2022-07-18T09:28:46;100822.69;;;36.08;16.07
21956;BME280;11142;49.930;8.606;2022-07-18T09:31:35;100819.88;;;36.20;15.80
21956;BME280;11142;49.930;8.606;2022-07-18T09:34:04;100805.66;;;34.43;17.10
21956;BME280;11142;49.930;8.606;2022-07-18T09:36:33;100801.50;;;33.05;18.57
21956;BME280;11142;49.930;8.606;2022-07-18T09:39:25;100813.84;;;34.13;17.57
21956;BME280;11142;49.930;8.606;2022-07-18T09:41:53;100799.31;;;32.23;19.36
21956;BME280;11142;49.930;8.606;2022-07-18T09:44:22;100801.03;;;32.78;18.66
21956;BME280;11142;49.930;8.606;2022-07-18T09:47:02;100815.38;;;34.44;17.57
21956;BME280;11142;49.930;8.606;2022-07-18T09:49:31;100805.63;;;34.08;17.51
21956;BME280;11142;49.930;8.606;2022-07-18T09:52:07;100803.38;;;33.94;17.66
21956;BME280;11142;49.930;8.606;2022-07-18T09:54:37;100801.47;;;33.41;18.66
21956;BME280;11142;49.930;8.606;2022-07-18T09:57:05;100797.94;;;33.29;19.16
21956;BME280;11142;49.930;8.606;2022-07-18T09:59:35;100793.34;;;34.24;18.15
21956;BME280;11142;49.930;8.606;2022-07-18T10:02:04;100795.69;;;35.63;17.89
21956;BME280;11142;49.930;8.606;2022-07-18T10:04:33;100796.25;;;36.32;15.85
21956;BME280;11142;49.930;8.606;2022-07-18T10:07:02;100803.66;;;35.87;16.19
21956;BME280;11142;49.930;8.606;2022-07-18T10:09:32;100796.03;;;36.17;16.16
21956;BME280;11142;49.930;8.606;2022-07-18T10:12:03;100791.06;;;36.47;15.86
21956;BME280;11142;49.930;8.606;2022-07-18T10:14:32;100786.97;;;36.61;16.37
21956;BME280;11142;49.930;8.606;2022-07-18T10:17:01;100793.50;;;36.65;16.35
21956;BME280;11142;49.930;8.606;2022-07-18T10:19:30;100799.47;;;36.89;14.97
21956;BME280;11142;49.930;8.606;2022-07-18T10:22:01;100801.69;;;36.70;16.42
21956;BME280;11142;49.930;8.606;2022-07-18T10:24:33;100806.56;;;37.39;15.00
21956;BME280;11142;49.930;8.606;2022-07-18T10:27:15;100796.53;;;36.69;15.20
21956;BME280;11142;49.930;8.606;2022-07-18T10:30:08;100798.41;;;36.30;15.94
21956;BME280;11142;49.930;8.606;2022-07-18T10:32:36;100794.88;;;36.68;15.45
21956;BME280;11142;49.930;8.606;2022-07-18T10:35:09;100787.53;;;35.92;16.22
21956;BME280;11142;49.930;8.606;2022-07-18T10:37:38;100786.59;;;36.03;15.85
21956;BME280;11142;49.930;8.606;2022-07-18T10:40:26;100793.50;;;35.60;15.84
21956;BME280;11142;49.930;8.606;2022-07-18T10:46:02;100788.41;;;36.91;14.94
21956;BME280;11142;49.930;8.606;2022-07-18T10:48:51;100796.94;;;37.26;15.36
21956;BME280;11142;49.930;8.606;2022-07-18T10:51:22;100795.50;;;37.18;14.60
21956;BME280;11142;49.930;8.606;2022-07-18T10:54:09;100782.91;;;36.86;15.21
21956;BME280;11142;49.930;8.606;2022-07-18T10:57:11;100790.56;;;37.10;16.07
21956;BME280;11142;49.930;8.606;2022-07-18T11:00:00;100781.50;;;38.22;15.04
21956;BME280;11142;49.930;8.606;2022-07-18T11:02:33;100786.44;;;38.77;14.40
21956;BME280;11142;49.930;8.606;2022-07-18T11:05:02;100781.31;;;37.92;14.08
21956;BME280;11142;49.930;8.606;2022-07-18T11:07:30;100768.91;;;36.50;15.09
21956;BME280;11142;49.930;8.606;2022-07-18T11:09:59;100777.53;;;35.76;15.81
21956;BME280;11142;49.930;8.606;2022-07-18T11:12:30;100763.31;;;36.35;15.90
21956;BME280;11142;49.930;8.606;2022-07-18T11:15:00;100768.59;;;35.92;15.88
21956;BME280;11142;49.930;8.606;2022-07-18T11:17:56;100768.59;;;35.02;16.71
21956;BME280;11142;49.930;8.606;2022-07-18T11:20:37;100761.69;;;35.51;16.26
21956;BME280;11142;49.930;8.606;2022-07-18T11:23:17;100753.44;;;36.62;15.98
21956;BME280;11142;49.930;8.606;2022-07-18T11:28:57;100748.44;;;36.76;15.30
21956;BME280;11142;49.930;8.606;2022-07-18T11:31:26;100760.91;;;38.26;14.55
21956;BME280;11142;49.930;8.606;2022-07-18T11:33:55;100758.13;;;40.80;12.83
21956;BME280;11142;49.930;8.606;2022-07-18T11:36:29;100761.66;;;45.12;10.72
21956;BME280;11142;49.930;8.606;2022-07-18T11:38:59;100771.44;;;46.89;9.54
21956;BME280;11142;49.930;8.606;2022-07-18T11:41:29;100776.50;;;49.11;8.33
21956;BME280;11142;49.930;8.606;2022-07-18T11:43:59;100780.81;;;50.59;7.50
21956;BME280;11142;49.930;8.606;2022-07-18T11:46:27;100785.94;;;49.63;8.16
21956;BME280;11142;49.930;8.606;2022-07-18T11:48:59;100783.22;;;52.15;7.29
21956;BME280;11142;49.930;8.606;2022-07-18T11:51:34;100786.22;;;53.52;6.67
21956;BME280;11142;49.930;8.606;2022-07-18T11:54:03;100783.47;;;53.75;6.17
21956;BME280;11142;49.930;8.606;2022-07-18T11:56:32;100775.53;;;52.39;6.89
21956;BME280;11142;49.930;8.606;2022-07-18T11:59:01;100763.28;;;52.09;6.85
21956;BME280;11142;49.930;8.606;2022-07-18T12:01:32;100771.97;;;52.58;6.99
21956;BME280;11142;49.930;8.606;2022-07-18T12:04:01;100771.72;;;52.82;6.59
21956;BME280;11142;49.930;8.606;2022-07-18T12:06:31;100757.34;;;51.20;7.03
21956;BME280;11142;49.930;8.606;2022-07-18T12:08:59;100754.69;;;50.20;7.66
21956;BME280;11142;49.930;8.606;2022-07-18T12:11:31;100769.66;;;53.18;6.83
21956;BME280;11142;49.930;8.606;2022-07-18T12:14:13;100752.44;;;48.49;8.17
21956;BME280;11142;49.930;8.606;2022-07-18T12:16:43;100760.84;;;51.76;7.16
21956;BME280;11142;49.930;8.606;2022-07-18T12:19:14;100758.13;;;52.08;6.53
21956;BME280;11142;49.930;8.606;2022-07-18T12:21:50;100755.84;;;54.61;5.83
21956;BME280;11142;49.930;8.606;2022-07-18T12:24:23;100746.53;;;51.43;6.90
21956;BME280;11142;49.930;8.606;2022-07-18T12:27:15;100745.75;;;51.74;6.82
21956;BME280;11142;49.930;8.606;2022-07-18T12:30:08;100742.78;;;54.13;6.21
21956;BME280;11142;49.930;8.606;2022-07-18T12:32:48;100749.44;;;55.24;5.99
21956;BME280;11142;49.930;8.606;2022-07-18T12:35:19;100739.63;;;54.40;6.08
21956;BME280;11142;49.930;8.606;2022-07-18T12:37:54;100742.63;;;53.57;6.12
21956;BME280;11142;49.930;8.606;2022-07-18T12:40:23;100737.88;;;55.22;5.53
21956;BME280;11142;49.930;8.606;2022-07-18T12:43:03;100727.78;;;52.49;6.58
21956;BME280;11142;49.930;8.606;2022-07-18T12:48:10;100701.97;;;45.92;9.41
21956;BME280;11142;49.930;8.606;2022-07-18T13:28:05;100696.66;;;55.41;6.00
21956;BME280;11142;49.930;8.606;2022-07-18T13:30:34;100690.84;;;53.68;6.03
21956;BME280;11142;49.930;8.606;2022-07-18T13:33:03;100684.38;;;51.72;6.81
21956;BME280;11142;49.930;8.606;2022-07-18T13:35:32;100665.72;;;47.50;8.61
21956;BME280;11142;49.930;8.606;2022-07-18T13:38:01;100664.41;;;50.64;7.93
21956;BME280;11142;49.930;8.606;2022-07-18T13:40:29;100632.84;;;41.71;11.84
21956;BME280;11142;49.930;8.606;2022-07-18T13:42:58;100645.72;;;45.20;10.15
21956;BME280;11142;49.930;8.606;2022-07-18T13:45:27;100655.56;;;48.38;9.08
21956;BME280;11142;49.930;8.606;2022-07-18T13:47:56;100653.25;;;49.47;8.54
21956;BME280;11142;49.930;8.606;2022-07-18T13:50:24;100663.06;;;52.42;7.53
21956;BME280;11142;49.930;8.606;2022-07-18T13:52:52;100675.66;;;55.11;6.07